Flight Track Log - Related Links

Times and Time Zones

All times are in EDT time to prevent confusion due to time zone crossing. See the SWA2147 flight status page for this flight to view local times or setup timezone preferences in your user account.

Time Position Orientation Groundspeed Altitude Reporting Facility
EDT Latitude Longitude Course Direction KTS MPH feet Rate Location/Type
Tue 06:12:41 PM 33.4333 -112.0333 268° West 176 203 2,000  Level Phoenix TRACON
Tue 06:13:16 PM 33.4325 -112.0672 268° West 179 206 2,700 1,918 Climbing Albuquerque Center
Tue 06:14:18 PM 33.4353 -112.1433 273° West 222 255 5,100 2,323 Climbing Albuquerque Center
Tue 06:15:20 PM 33.4778 -112.1875 319° Northwest 262 302 7,500 2,516 Climbing Albuquerque Center
Tue 06:16:22 PM 33.5517 -112.1636 15° North 276 318 10,300 2,177 Climbing Albuquerque Center
Tue 06:17:24 PM 33.6064 -112.0892 49° Northeast 351 404 12,000 2,390 Climbing Albuquerque Center
Tue 06:18:25 PM 33.6206 -111.9447 83° East 369 425 15,200 2,927 Climbing Albuquerque Center
Tue 06:19:27 PM 33.6336 -111.8206 83° East 378 435 18,000 2,274 Climbing Albuquerque Center
Tue 06:20:29 PM 33.6467 -111.6922 83° East 390 449 19,900 2,032 Climbing Albuquerque Center
Tue 06:21:31 PM 33.6600 -111.5567 83° East 411 473 22,200 1,887 Climbing Albuquerque Center
Tue 06:22:33 PM 33.6739 -111.4156 83° East 428 493 23,800 1,548 Climbing Albuquerque Center
Tue 06:23:35 PM 33.6983 -111.2383 81° East 452 520 25,400 1,548 Climbing Albuquerque Center
Tue 06:24:37 PM 33.7492 -111.0981 66° East 460 529 27,000 1,548 Climbing Albuquerque Center
Tue 06:25:39 PM 33.7986 -110.9561 67° East 463 533 28,600 1,500 Climbing Albuquerque Center
Tue 06:26:41 PM 33.8497 -110.8131 67° East 467 537 30,100 871 Climbing Albuquerque Center
Tue 06:27:43 PM 33.9008 -110.6658 67° East 473 544 30,400 774 Climbing Albuquerque Center
Tue 06:28:45 PM 33.9683 -110.4769 67° East 504 580 31,700 1,171 Climbing Albuquerque Center
Tue 06:29:46 PM 34.0172 -110.3381 67° East 512 589 32,800 1,171 Climbing Albuquerque Center
Tue 06:30:48 PM 34.0822 -110.1478 68° East 515 593 34,100 1,065 Climbing Albuquerque Center
Tue 06:31:50 PM 34.1347 -109.9983 67° East 512 589 35,000 435 Climbing Albuquerque Center
Tue 06:32:52 PM 34.1953 -109.8200 68° East 514 592 35,000  Level Albuquerque Center
Tue 06:33:54 PM 34.2472 -109.6683 67° East 513 590 35,000  Level Albuquerque Center
Tue 06:34:56 PM 34.3072 -109.4911 68° East 511 588 35,000  Level Albuquerque Center
Tue 06:35:57 PM 34.3586 -109.3403 68° East 509 586 35,000  Level Albuquerque Center
Tue 06:36:59 PM 34.4100 -109.1869 68° East 512 589 35,000  Level Albuquerque Center
Tue 06:38:01 PM 34.4636 -109.0078 70° East 508 585 35,000  Level Albuquerque Center
Tue 06:39:03 PM 34.5067 -108.8506 72° East 511 588 35,000  Level Albuquerque Center
Tue 06:40:05 PM 34.5575 -108.6650 72° East 516 594 35,000  Level Albuquerque Center
Tue 06:41:07 PM 34.6008 -108.5039 72° East 521 600 35,000  Level Albuquerque Center
Tue 06:42:08 PM 34.6450 -108.3389 72° East 524 603 35,000  Level Albuquerque Center
Tue 06:43:10 PM 34.6908 -108.1708 72° East 525 604 35,000  Level Albuquerque Center
Tue 06:44:12 PM 34.7447 -107.9694 72° East 524 603 35,000  Level Albuquerque Center
Tue 06:45:14 PM 34.7894 -107.8019 72° East 521 600 35,000  Level Albuquerque Center
Tue 06:46:16 PM 34.8339 -107.6319 72° East 526 605 35,000  Level Albuquerque Center
Tue 06:47:17 PM 34.8775 -107.4636 72° East 524 603 35,000  Level Albuquerque Center
Tue 06:48:19 PM 34.9217 -107.2936 72° East 526 605 35,000  Level Albuquerque Center
Tue 06:49:21 PM 34.9722 -107.1042 72° East 532 612 35,000  Level Albuquerque Center
Tue 06:50:23 PM 35.0133 -106.9414 73° East 528 608 35,000  Level Albuquerque Center
Tue 06:51:24 PM 35.0692 -106.7603 69° East 513 590 35,000  Level Albuquerque Center
Tue 06:52:26 PM 35.1367 -106.6086 61° Northeast 526 605 35,000  Level Albuquerque Center
Tue 06:53:28 PM 35.2047 -106.4525 62° Northeast 536 617 35,000  Level Albuquerque Center
Tue 06:54:30 PM 35.2744 -106.2956 61° Northeast 531 611 35,000  Level Albuquerque Center
Tue 06:55:31 PM 35.3558 -106.1056 62° Northeast 523 602 35,000  Level Albuquerque Center
Tue 06:56:33 PM 35.4286 -105.9450 61° Northeast 539 620 35,000  Level Albuquerque Center
Tue 06:57:35 PM 35.5008 -105.7803 62° Northeast 534 615 35,000  Level Albuquerque Center
Tue 06:58:37 PM 35.5697 -105.6164 63° Northeast 535 616 35,000  Level Albuquerque Center
Tue 06:59:38 PM 35.6392 -105.4539 62° Northeast 532 612 35,000  Level Albuquerque Center
Tue 07:00:40 PM 35.7097 -105.2869 62° Northeast 541 623 35,000  Level Albuquerque Center
Tue 07:01:42 PM 35.7786 -105.1225 63° Northeast 538 619 35,000  Level Albuquerque Center
Tue 07:02:44 PM 35.8481 -104.9586 62° Northeast 533 613 35,000  Level Albuquerque Center
Tue 07:03:45 PM 35.9314 -104.7614 62° Northeast 546 628 35,000  Level Albuquerque Center
Tue 07:04:47 PM 36.0008 -104.5961 63° Northeast 539 620 35,000  Level Albuquerque Center
Tue 07:05:49 PM 36.0681 -104.4328 63° Northeast 533 613 35,000  Level Albuquerque Center
Tue 07:06:51 PM 36.1367 -104.2656 63° Northeast 535 616 35,000  Level Albuquerque Center
Tue 07:07:53 PM 36.2064 -104.0997 62° Northeast 537 618 35,000  Level Albuquerque Center
Tue 07:08:54 PM 36.2739 -103.9375 63° Northeast 529 609 35,000  Level Albuquerque Center
Tue 07:09:56 PM 36.3411 -103.7736 63° Northeast 527 606 35,000  Level Albuquerque Center
Tue 07:10:58 PM 36.4078 -103.6097 63° Northeast 526 605 35,000  Level Albuquerque Center
Tue 07:12:00 PM 36.4736 -103.4469 63° Northeast 524 603 35,000  Level Albuquerque Center
Tue 07:13:01 PM 36.5386 -103.2817 64° Northeast 525 604 35,000  Level Albuquerque Center
Tue 07:15:05 PM 36.6758 -102.9381 63° Northeast 527 606 35,000  Level Albuquerque Center
Tue 07:16:06 PM 36.7483 -102.7533 64° Northeast 530 610 35,000  Level Albuquerque Center
Tue 07:17:08 PM 36.8100 -102.5947 64° Northeast 532 612 35,000  Level Albuquerque Center
Tue 07:18:10 PM 36.8764 -102.4231 64° Northeast 542 624 35,000  Level Albuquerque Center
Tue 07:19:11 PM 36.9433 -102.2569 63° Northeast 539 620 35,000  Level Albuquerque Center
Tue 07:20:13 PM 37.0153 -102.0689 64° Northeast 538 619 35,000  Level Albuquerque Center
Tue 07:21:15 PM 37.0781 -101.9078 64° Northeast 538 619 35,000  Level Albuquerque Center
Tue 07:22:16 PM 37.1492 -101.7194 65° Northeast 538 619 35,000  Level Albuquerque Center
Tue 07:23:33 PM 37.2189 -101.5269 65° Northeast 540 621 35,000  Level Kansas City Center
Tue 07:24:33 PM 37.2911 -101.3383 64° Northeast 538 619 35,000  Level Kansas City Center
Tue 07:25:36 PM 37.3522 -101.1753 65° Northeast 541 623 35,000  Level Kansas City Center
Tue 07:26:37 PM 37.4244 -100.9842 65° Northeast 545 627 35,000  Level Kansas City Center
Tue 07:27:39 PM 37.4839 -100.8211 65° Northeast 544 626 35,000  Level Kansas City Center
Tue 07:28:40 PM 37.5467 -100.6544 65° Northeast 546 628 35,000  Level Kansas City Center
Tue 07:29:43 PM 37.6150 -100.4669 65° Northeast 545 627 35,000  Level Kansas City Center
Tue 07:30:43 PM 37.6850 -100.2742 65° Northeast 544 626 35,000  Level Kansas City Center
Tue 07:31:47 PM 37.7458 -100.1078 65° Northeast 545 627 35,000  Level Kansas City Center
Tue 07:32:48 PM 37.8161 -99.9136 65° Northeast 545 627 35,000  Level Kansas City Center
Tue 07:33:50 PM 37.8750 -99.7467 66° East 544 626 35,000  Level Kansas City Center
Tue 07:34:51 PM 37.9347 -99.5800 66° East 544 626 35,000  Level Kansas City Center
Tue 07:35:54 PM 37.9958 -99.4000 67° East 546 628 35,000  Level Kansas City Center
Tue 07:36:55 PM 38.0569 -99.2236 66° East 545 627 35,000  Level Kansas City Center
Tue 07:37:56 PM 38.1200 -99.0464 66° East 549 632 35,000  Level Kansas City Center
Tue 07:38:58 PM 38.1950 -98.8347 66° East 548 631 35,000  Level Kansas City Center
Tue 07:39:59 PM 38.2594 -98.6547 65° Northeast 551 634 35,000  Level Kansas City Center
Tue 07:41:02 PM 38.3208 -98.4758 66° East 548 631 35,000  Level Kansas City Center
Tue 07:42:02 PM 38.3808 -98.2967 67° East 547 629 35,000  Level Kansas City Center
Tue 07:43:06 PM 38.4419 -98.1178 66° East 546 628 35,000  Level Kansas City Center
Tue 07:44:07 PM 38.5017 -97.9372 67° East 547 629 35,000  Level Kansas City Center
Tue 07:45:07 PM 38.5417 -97.7494 75° East 544 626 35,000  Level Kansas City Center
Tue 07:46:08 PM 38.5808 -97.5608 75° East 547 629 35,000  Level Kansas City Center
Tue 07:47:10 PM 38.6186 -97.3733 75° East 544 626 35,000  Level Kansas City Center
Tue 07:48:14 PM 38.6569 -97.1856 75° East 544 626 35,000  Level Kansas City Center
Tue 07:49:14 PM 38.7147 -96.9658 71° East 542 624 35,000  Level Kansas City Center
Tue 07:50:17 PM 38.7628 -96.7822 71° East 543 625 35,000  Level Kansas City Center
Tue 07:51:17 PM 38.8103 -96.5992 72° East 542 624 35,000  Level Kansas City Center
Tue 07:52:19 PM 38.8628 -96.4294 68° East 543 625 35,000  Level Kansas City Center
Tue 07:53:21 PM 38.9278 -96.2292 67° East 544 626 35,000  Level Kansas City Center
Tue 07:54:24 PM 38.9786 -96.0572 69° East 538 619 35,000  Level Kansas City Center
Tue 07:55:24 PM 39.0397 -95.8556 69° East 542 624 35,000  Level Kansas City Center
Tue 07:56:26 PM 39.0928 -95.6806 69° East 548 631 35,000  Level Kansas City Center
Tue 07:57:29 PM 39.1536 -95.4792 69° East 540 621 35,000  Level Kansas City Center
Tue 07:58:29 PM 39.2075 -95.2967 69° East 541 623 35,000  Level Kansas City Center
Tue 07:59:32 PM 39.2644 -95.1014 69° East 540 621 35,000  Level Kansas City Center
Tue 08:00:33 PM 39.3108 -94.9450 69° East 538 619 35,000  Level Kansas City Center
Tue 08:01:34 PM 39.3692 -94.7447 69° East 533 613 35,000  Level Kansas City Center
Tue 08:02:35 PM 39.4200 -94.5703 69° East 535 616 35,000  Level Kansas City Center
Tue 08:03:39 PM 39.4792 -94.3667 69° East 540 621 35,000  Level Kansas City Center
Tue 08:04:39 PM 39.5286 -94.1936 70° East 536 617 35,000  Level Kansas City Center
Tue 08:05:40 PM 39.5786 -94.0189 70° East 538 619 35,000  Level Kansas City Center
Tue 08:06:43 PM 39.6358 -93.8164 70° East 537 618 35,000  Level Kansas City Center
Tue 08:07:44 PM 39.6867 -93.6375 70° East 544 626 35,000  Level Kansas City Center
Tue 08:08:44 PM 39.7367 -93.4542 70° East 543 625 35,000  Level Kansas City Center
Tue 08:09:48 PM 39.7875 -93.2761 70° East 535 616 35,000  Level Kansas City Center
Tue 08:10:48 PM 39.8464 -93.0575 71° East 539 620 35,000  Level Kansas City Center
Tue 08:11:52 PM 39.8964 -92.8778 70° East 537 618 35,000  Level Kansas City Center
Tue 08:12:52 PM 39.9450 -92.6953 71° East 541 623 35,000  Level Kansas City Center
Tue 08:13:53 PM 39.9922 -92.5119 71° East 544 626 35,000  Level Kansas City Center
Tue 08:14:55 PM 40.0406 -92.3333 70° East 536 617 35,000  Level Kansas City Center
Tue 08:15:57 PM 40.0983 -92.1167 71° East 536 617 35,000  Level Kansas City Center
Tue 08:16:58 PM 40.1456 -91.9350 71° East 535 616 35,000  Level Kansas City Center
Tue 08:17:59 PM 40.1925 -91.7533 71° East 534 615 35,000 -432 Level Kansas City Center
Tue 08:19:03 PM 40.2397 -91.5717 71° East 534 615 34,100 -871 Descending Kansas City Center
Tue 08:20:03 PM 40.2864 -91.3853 72° East 540 621 33,200 -537 Descending Kansas City Center
Tue 08:21:06 PM 40.3414 -91.1681 72° East 541 623 33,000 -98 Descending Kansas City Center
Tue 08:22:06 PM 40.3894 -90.9819 71° East 541 623 33,000  Level Kansas City Center
Tue 08:22:41 PM 40.4167 -90.8706 72° East 538 619 33,000  Level Chicago Center
Tue 08:23:43 PM 40.4631 -90.6853 72° East 535 616 33,000 -98 Level Chicago Center
Tue 08:24:44 PM 40.5083 -90.5017 72° East 530 610 32,800 -1,220 Descending Chicago Center
Tue 08:25:46 PM 40.5553 -90.3192 71° East 528 608 30,500 -2,371 Descending Chicago Center
Tue 08:26:48 PM 40.6392 -90.1433 58° Northeast 517 595 27,900 -2,323 Descending Chicago Center
Tue 08:27:50 PM 40.7186 -89.9875 56° Northeast 514 592 25,700 -2,516 Descending Chicago Center
Tue 08:28:52 PM 40.7950 -89.8347 57° Northeast 503 579 22,700 -2,855 Descending Chicago Center
Tue 08:29:54 PM 40.8678 -89.6825 58° Northeast 493 567 19,800 -2,516 Descending Chicago Center
Tue 08:30:56 PM 40.9442 -89.5331 56° Northeast 493 567 17,500 -1,610 Descending Chicago Center
Tue 08:31:57 PM 41.0333 -89.3631 55° Northeast 468 539 16,500 -927 Descending Chicago Center
Tue 08:32:59 PM 41.1000 -89.2297 56° Northeast 438 504 15,600 -919 Descending Chicago Center
Tue 08:34:01 PM 41.1639 -89.1000 57° Northeast 430 495 14,600 -968 Descending Chicago Center
Tue 08:35:03 PM 41.2275 -88.9706 57° Northeast 421 484 13,600 -677 Descending Chicago Center
Tue 08:36:05 PM 41.2844 -88.8508 58° Northeast 382 440 13,200 -1,065 Descending Chicago Center
Tue 08:37:07 PM 41.3489 -88.7231 56° Northeast 349 402 11,400 -1,694 Descending Chicago Center
Tue 08:38:09 PM 41.3981 -88.6206 57° Northeast 333 383 9,700 -1,597 Descending Chicago Center
Tue 08:39:11 PM 41.4467 -88.5236 56° Northeast 319 367 8,100 -1,500 Descending Chicago Center
Tue 08:40:13 PM 41.4942 -88.4244 57° Northeast 317 365 6,600 -1,024 Descending Chicago Center
Tue 08:41:14 PM 41.5392 -88.3322 57° Northeast 302 348 6,000 -439 Descending Chicago Center
Tue 08:42:16 PM 41.5672 -88.2333 69° East 288 331 5,700 -387 Descending Chicago Center
Tue 08:43:18 PM 41.5761 -88.1294 83° East 280 322 5,200 -435 Descending Chicago Center
Tue 08:44:20 PM 41.5819 -88.0267 86° East 276 318 4,800 -532 Descending Chicago Center
Tue 08:45:22 PM 41.5844 -87.9058 88° East 272 313 4,100 -871 Descending Chicago Center
Tue 08:46:24 PM 41.5842 -87.8064 90° East 270 311 3,000 -532 Descending Chicago Center
Tue 08:47:26 PM 41.5814 -87.7231 93° East 244 281 3,000  Level Chicago Center
Tue 08:48:28 PM 41.5992 -87.6592 70° East 209 241 3,000 -49 Level Chicago Center
Tue 08:49:29 PM 41.6289 -87.6089 52° Northeast 187 215 2,900 -244 Descending Chicago Center
Tue 08:50:31 PM 41.6625 -87.5911 22° Northeast 183 211 2,500 -194 Descending Chicago Center
Tue 08:51:33 PM 41.7033 -87.6350 321° Northwest 165 190 2,500 -64 Level Chicago Center
Tue 08:52:05 PM 41.7167 -87.6667 299° West 161 185 2,400 -551 Descending Chicago TRACON
Tue 08:53:11 PM 41.7500 -87.7000 323° Northwest 131 151 1,600 -762 Descending Chicago TRACON
Tue 08:54:11 PM 41.7667 -87.7333 304° West 131 151 800 -800 Descending Chicago TRACON

Login

Don't have an account? Register now (free) for customized features, flight alerts, and more!